createdAt,value
2019-03-18T00:01:51.447Z,5.45
2019-03-18T00:04:18.275Z,5.45
2019-03-18T00:06:44.900Z,5.42
2019-03-18T00:09:11.478Z,5.39
2019-03-18T00:11:38.215Z,5.39
2019-03-18T00:14:04.999Z,5.40
2019-03-18T00:16:32.738Z,5.39
2019-03-18T00:18:59.410Z,5.36
2019-03-18T00:21:25.988Z,5.33
2019-03-18T00:23:52.791Z,5.27
2019-03-18T00:26:19.640Z,5.19
2019-03-18T00:28:46.520Z,5.16
2019-03-18T00:31:13.096Z,5.13
2019-03-18T00:33:39.668Z,5.15
2019-03-18T00:36:06.439Z,5.14
2019-03-18T00:38:33.107Z,5.08
2019-03-18T00:40:59.917Z,5.07
2019-03-18T00:43:26.515Z,5.08
2019-03-18T00:45:53.237Z,5.06
2019-03-18T00:48:19.986Z,5.05
2019-03-18T00:50:46.758Z,5.08
2019-03-18T00:53:13.524Z,5.08
2019-03-18T00:55:40.107Z,5.07
2019-03-18T00:58:06.839Z,5.08
2019-03-18T01:00:33.616Z,5.07
2019-03-18T01:03:00.451Z,5.04
2019-03-18T01:05:27.216Z,5.02
2019-03-18T01:07:53.891Z,4.98
2019-03-18T01:10:20.527Z,4.96
2019-03-18T01:12:47.369Z,4.96
2019-03-18T01:15:26.790Z,4.96
2019-03-18T01:17:43.225Z,4.96
2019-03-18T01:20:10.446Z,4.94
2019-03-18T01:22:36.990Z,4.93
2019-03-18T01:25:03.892Z,4.90
2019-03-18T01:27:30.440Z,4.88
2019-03-18T01:29:57.056Z,4.89
2019-03-18T01:32:23.819Z,4.92
2019-03-18T01:34:50.648Z,4.89
2019-03-18T01:37:17.296Z,4.88
2019-03-18T01:39:44.063Z,4.91
2019-03-18T01:42:10.704Z,4.97
2019-03-18T01:44:37.266Z,4.91
2019-03-18T01:47:04.157Z,4.89
2019-03-18T01:49:30.820Z,4.84
2019-03-18T01:51:57.623Z,4.82
2019-03-18T01:54:24.502Z,4.84
2019-03-18T01:56:51.160Z,4.85
2019-03-18T01:59:17.737Z,4.87
2019-03-18T02:01:44.461Z,4.84
2019-03-18T02:04:11.129Z,4.80
2019-03-18T02:06:37.794Z,4.86
2019-03-18T02:09:05.275Z,4.84
2019-03-18T02:11:32.024Z,4.87
2019-03-18T02:13:58.669Z,4.81
2019-03-18T02:16:25.595Z,4.80
2019-03-18T02:18:52.369Z,4.74
2019-03-18T02:21:19.242Z,4.69
2019-03-18T02:23:45.999Z,4.62
2019-03-18T02:26:12.552Z,4.59
2019-03-18T02:28:39.210Z,4.57
2019-03-18T02:31:06.252Z,4.53
2019-03-18T02:33:32.871Z,4.48
2019-03-18T02:35:59.538Z,4.41
2019-03-18T02:38:26.523Z,4.35
2019-03-18T02:40:53.170Z,4.32
2019-03-18T02:43:19.830Z,4.29
2019-03-18T02:45:47.776Z,4.25
2019-03-18T02:48:14.458Z,4.23
2019-03-18T02:50:41.229Z,4.32
2019-03-18T02:53:08.035Z,4.30
2019-03-18T02:55:34.685Z,4.29
2019-03-18T02:58:01.324Z,4.24
2019-03-18T03:00:28.070Z,4.29
2019-03-18T03:02:54.598Z,4.29
2019-03-18T03:05:21.254Z,4.26
2019-03-18T03:07:48.124Z,4.23
2019-03-18T03:10:14.914Z,4.22
2019-03-18T03:12:41.475Z,4.21
2019-03-18T03:15:08.142Z,4.18
2019-03-18T03:17:34.685Z,4.24
2019-03-18T03:20:01.562Z,4.23
2019-03-18T03:22:28.077Z,4.22
2019-03-18T03:24:54.748Z,4.17
2019-03-18T03:27:21.434Z,4.14
2019-03-18T03:29:48.141Z,4.12
2019-03-18T03:32:14.694Z,4.17
2019-03-18T03:34:41.501Z,4.11
2019-03-18T03:37:08.120Z,4.12
2019-03-18T03:39:34.681Z,4.11
2019-03-18T03:42:01.613Z,4.05
2019-03-18T03:44:28.150Z,4.04
2019-03-18T03:46:54.885Z,4.05
2019-03-18T03:49:21.622Z,4.02
2019-03-18T03:51:48.130Z,4.02
2019-03-18T03:54:14.687Z,4.03
2019-03-18T03:56:41.366Z,4.00
2019-03-18T03:59:08.060Z,3.99
2019-03-18T04:01:34.647Z,4.00
2019-03-18T04:04:01.238Z,4.02
2019-03-18T04:06:27.942Z,4.02
2019-03-18T04:08:54.585Z,3.97
2019-03-18T04:11:21.241Z,4.02
2019-03-18T04:13:47.976Z,3.95
2019-03-18T04:16:14.635Z,3.95
2019-03-18T04:18:41.165Z,3.92
2019-03-18T04:21:07.814Z,3.93
2019-03-18T04:23:34.582Z,3.86
2019-03-18T04:26:01.231Z,3.82
2019-03-18T04:28:27.889Z,3.83
2019-03-18T04:33:24.269Z,3.83
2019-03-18T04:35:50.929Z,3.78
2019-03-18T04:38:17.724Z,3.83
2019-03-18T04:40:44.517Z,3.83
2019-03-18T04:43:11.218Z,3.81
2019-03-18T04:45:37.970Z,3.81
2019-03-18T04:48:04.753Z,3.79
2019-03-18T04:50:31.435Z,3.79
2019-03-18T04:52:58.073Z,3.79
2019-03-18T04:55:24.733Z,3.74
2019-03-18T04:57:51.433Z,3.70
2019-03-18T05:00:18.064Z,3.72
2019-03-18T05:02:44.792Z,3.70
2019-03-18T05:05:11.481Z,3.69
2019-03-18T05:07:38.267Z,3.65
2019-03-18T05:10:05.266Z,3.66
2019-03-18T05:12:31.809Z,3.62
2019-03-18T05:14:58.337Z,3.58
2019-03-18T05:17:26.977Z,3.56
2019-03-18T05:19:53.473Z,3.54
2019-03-18T05:22:20.017Z,3.54
2019-03-18T05:24:46.557Z,3.59
2019-03-18T05:27:13.200Z,3.56
2019-03-18T05:29:39.857Z,3.55
2019-03-18T05:32:06.581Z,3.56
2019-03-18T05:34:33.121Z,3.61
2019-03-18T05:36:59.892Z,3.65
2019-03-18T05:39:27.251Z,3.71
2019-03-18T05:41:53.923Z,3.70
2019-03-18T05:44:20.619Z,3.74
2019-03-18T05:46:47.417Z,3.77
2019-03-18T05:49:14.278Z,3.77
2019-03-18T05:51:40.828Z,3.73
2019-03-18T05:54:07.544Z,3.73
2019-03-18T05:56:34.247Z,3.74
2019-03-18T05:59:01.052Z,3.79
2019-03-18T06:01:27.945Z,3.85
2019-03-18T06:03:54.561Z,3.83
2019-03-18T06:06:21.659Z,3.86
2019-03-18T06:08:48.344Z,3.88
2019-03-18T06:11:14.874Z,3.90
2019-03-18T06:13:41.625Z,3.92
2019-03-18T06:16:08.336Z,3.98
2019-03-18T06:18:35.247Z,4.02
2019-03-18T06:21:01.989Z,4.05
2019-03-18T06:23:28.686Z,4.03
2019-03-18T06:25:55.374Z,4.06
2019-03-18T06:28:22.204Z,4.08
2019-03-18T06:30:49.030Z,4.09
2019-03-18T06:33:15.570Z,4.14
2019-03-18T06:35:42.426Z,4.21
2019-03-18T06:38:09.208Z,4.29
2019-03-18T06:40:35.990Z,4.42
2019-03-18T06:43:02.828Z,4.53
2019-03-18T06:45:29.528Z,4.59
2019-03-18T06:48:04.827Z,4.61
2019-03-18T06:50:24.639Z,4.68
2019-03-18T06:52:51.169Z,4.75
2019-03-18T06:55:17.709Z,4.77
2019-03-18T06:57:44.423Z,4.79
2019-03-18T07:00:11.054Z,4.88
2019-03-18T07:02:37.602Z,4.93
2019-03-18T07:05:05.973Z,4.93
2019-03-18T07:07:32.497Z,5.03
2019-03-18T07:09:59.149Z,5.14
2019-03-18T07:12:25.731Z,5.08
2019-03-18T07:14:52.288Z,5.23
2019-03-18T07:17:18.918Z,5.25
2019-03-18T07:19:45.588Z,5.33
2019-03-18T07:22:12.342Z,5.49
2019-03-18T07:24:39.040Z,5.50
2019-03-18T07:27:05.888Z,5.56
2019-03-18T07:29:32.454Z,5.63
2019-03-18T07:31:59.175Z,5.73
2019-03-18T07:34:25.971Z,5.77
2019-03-18T07:36:52.741Z,5.83
2019-03-18T07:39:19.348Z,5.97
2019-03-18T07:41:46.034Z,6.15
2019-03-18T07:44:12.679Z,6.31
2019-03-18T07:46:39.335Z,6.34
2019-03-18T07:49:05.964Z,6.44
2019-03-18T07:51:32.747Z,6.55
2019-03-18T07:53:59.399Z,6.72
2019-03-18T07:56:26.014Z,6.90
2019-03-18T07:58:52.668Z,7.08
2019-03-18T08:01:19.266Z,7.19
2019-03-18T08:03:45.842Z,7.40
2019-03-18T08:06:12.737Z,7.56
2019-03-18T08:08:39.546Z,7.71
2019-03-18T08:11:06.373Z,7.81
2019-03-18T08:13:32.956Z,7.90
2019-03-18T08:15:59.675Z,7.91
2019-03-18T08:18:26.481Z,7.81
2019-03-18T08:20:53.183Z,7.91
2019-03-18T08:23:20.057Z,8.19
2019-03-18T08:25:46.671Z,8.34
2019-03-18T08:28:13.218Z,8.64
2019-03-18T08:30:39.883Z,8.91
2019-03-18T08:33:06.546Z,9.02
2019-03-18T08:35:33.317Z,9.00
2019-03-18T08:38:00.069Z,9.15
2019-03-18T08:40:26.788Z,9.56
2019-03-18T08:42:53.493Z,10.64
2019-03-18T08:45:20.042Z,11.57
2019-03-18T08:47:46.708Z,12.20
2019-03-18T08:50:13.478Z,12.54
2019-03-18T08:52:40.379Z,12.70
2019-03-18T08:55:07.109Z,12.20
2019-03-18T08:57:33.769Z,12.34
2019-03-18T09:00:00.438Z,12.03
2019-03-18T09:02:26.978Z,12.52
2019-03-18T09:04:53.710Z,12.22
2019-03-18T09:07:20.354Z,11.89
2019-03-18T09:09:46.979Z,11.67
2019-03-18T09:12:13.693Z,11.23
2019-03-18T09:14:40.442Z,10.82
2019-03-18T09:17:07.109Z,10.81
2019-03-18T09:19:33.770Z,10.72
2019-03-18T09:22:00.486Z,10.72
2019-03-18T09:24:27.230Z,11.02
2019-03-18T09:27:02.227Z,11.03
2019-03-18T09:29:22.368Z,11.12
2019-03-18T09:31:49.053Z,12.00
2019-03-18T09:34:15.890Z,13.45
2019-03-18T09:36:42.615Z,13.70
2019-03-18T09:39:09.396Z,14.90
2019-03-18T09:41:36.041Z,15.60
2019-03-18T09:44:02.800Z,15.08
2019-03-18T09:46:29.471Z,13.90
2019-03-18T09:48:56.029Z,13.50
2019-03-18T09:51:22.817Z,12.82
2019-03-18T09:53:49.362Z,12.06
2019-03-18T09:56:16.214Z,10.97
2019-03-18T09:58:42.867Z,10.43
2019-03-18T10:01:09.580Z,9.90
2019-03-18T10:03:36.303Z,9.45
2019-03-18T10:06:03.052Z,9.48
2019-03-18T10:08:29.712Z,9.43
2019-03-18T10:10:56.548Z,9.71
2019-03-18T10:13:23.212Z,9.82
2019-03-18T10:15:49.876Z,9.93
2019-03-18T10:18:16.686Z,10.12
2019-03-18T10:20:43.220Z,9.97
2019-03-18T10:23:09.758Z,10.07
2019-03-18T10:25:36.426Z,11.12
2019-03-18T10:28:03.177Z,12.09
2019-03-18T10:30:29.900Z,12.67
2019-03-18T10:32:56.656Z,12.91
2019-03-18T10:35:23.363Z,12.43
2019-03-18T10:37:50.044Z,12.16
2019-03-18T10:40:16.721Z,11.82
2019-03-18T10:42:43.363Z,11.69
2019-03-18T10:45:10.109Z,11.45
2019-03-18T10:47:36.952Z,11.69
2019-03-18T10:50:04.275Z,12.09
2019-03-18T10:52:30.891Z,13.76
2019-03-18T10:54:57.570Z,14.11
2019-03-18T10:57:24.187Z,13.88
2019-03-18T10:59:50.893Z,13.11
2019-03-18T11:02:17.539Z,12.53
2019-03-18T11:04:44.332Z,11.93
2019-03-18T11:07:11.070Z,11.00
2019-03-18T11:09:37.732Z,10.37
2019-03-18T11:12:04.428Z,9.82
2019-03-18T11:14:31.273Z,9.44
2019-03-18T11:16:57.835Z,9.21
2019-03-18T11:19:24.440Z,9.16
2019-03-18T11:21:51.318Z,9.24
2019-03-18T11:24:18.058Z,9.57
2019-03-18T11:26:44.975Z,9.95
2019-03-18T11:29:11.942Z,10.58
2019-03-18T11:31:38.622Z,10.98
2019-03-18T11:34:05.304Z,11.28
2019-03-18T11:36:32.105Z,11.60
2019-03-18T11:38:58.823Z,11.61
2019-03-18T11:41:25.610Z,11.89
2019-03-18T11:43:55.879Z,12.97
2019-03-18T11:46:22.737Z,13.85
2019-03-18T11:48:49.549Z,13.53
2019-03-18T11:51:24.541Z,13.14
2019-03-18T11:53:51.616Z,12.84
2019-03-18T11:56:24.719Z,12.46
2019-03-18T11:58:51.802Z,12.18
2019-03-18T12:01:25.422Z,11.85
2019-03-18T12:03:52.472Z,12.28
2019-03-18T12:06:19.293Z,12.43
2019-03-18T12:08:45.988Z,12.20
2019-03-18T12:11:13.806Z,12.14
2019-03-18T12:13:43.544Z,12.08
2019-03-18T12:16:10.377Z,12.46
2019-03-18T12:18:37.210Z,12.83
2019-03-18T12:21:04.375Z,13.63
2019-03-18T12:23:30.980Z,14.68
2019-03-18T12:26:04.829Z,16.08
2019-03-18T12:28:31.616Z,17.25
2019-03-18T12:30:58.232Z,17.80
2019-03-18T12:33:32.899Z,17.85
2019-03-18T12:35:59.776Z,18.19
2019-03-18T12:38:28.225Z,18.18
2019-03-18T12:40:54.870Z,17.90
2019-03-18T12:43:21.516Z,17.26
2019-03-18T12:45:48.184Z,16.36
2019-03-18T12:48:15.271Z,15.21
2019-03-18T12:50:55.151Z,14.65
2019-03-18T12:53:10.719Z,14.56
2019-03-18T12:55:37.523Z,14.69
2019-03-18T12:58:04.366Z,14.76
2019-03-18T13:00:31.175Z,15.03
2019-03-18T13:02:57.973Z,14.50
2019-03-18T13:05:26.639Z,14.05
2019-03-18T13:07:53.646Z,13.71
2019-03-18T13:10:21.853Z,13.67
2019-03-18T13:12:48.990Z,13.55
2019-03-18T13:15:15.791Z,13.28
2019-03-18T13:17:43.848Z,12.70
2019-03-18T13:20:11.759Z,12.26
2019-03-18T13:22:39.186Z,12.00
2019-03-18T13:25:06.409Z,11.69
2019-03-18T13:27:33.214Z,11.64
2019-03-18T13:30:00.050Z,11.71
2019-03-18T13:32:26.864Z,11.95
2019-03-18T13:34:53.615Z,12.09
2019-03-18T13:37:21.589Z,12.63
2019-03-18T13:39:49.368Z,12.90
2019-03-18T13:42:16.282Z,12.98
2019-03-18T13:44:43.681Z,13.31
2019-03-18T13:47:10.288Z,13.27
2019-03-18T13:49:38.464Z,13.17
2019-03-18T13:52:05.380Z,13.10
2019-03-18T13:54:32.582Z,13.10
2019-03-18T13:57:00.274Z,13.28
2019-03-18T13:59:28.248Z,13.14
2019-03-18T14:01:55.235Z,13.04
2019-03-18T14:04:22.108Z,12.88
2019-03-18T14:06:49.425Z,12.77
2019-03-18T14:09:16.283Z,12.55
2019-03-18T14:11:44.005Z,12.40
2019-03-18T14:14:10.724Z,12.15
2019-03-18T14:16:37.423Z,12.21
2019-03-18T14:19:04.134Z,11.85
2019-03-18T14:21:33.595Z,11.80
2019-03-18T14:23:59.388Z,11.85
2019-03-18T14:26:26.092Z,11.86
2019-03-18T14:28:52.871Z,11.59
2019-03-18T14:31:20.289Z,11.59
2019-03-18T14:33:48.947Z,11.45
2019-03-18T14:36:15.777Z,11.34
2019-03-18T14:38:43.032Z,11.02
2019-03-18T14:41:09.849Z,11.10
2019-03-18T14:43:37.414Z,11.18
2019-03-18T14:46:04.371Z,11.42
2019-03-18T14:48:31.213Z,11.80
2019-03-18T14:50:58.684Z,12.12
2019-03-18T14:53:25.497Z,12.31
2019-03-18T14:55:53.079Z,12.63
2019-03-18T14:58:19.944Z,12.62
2019-03-18T15:00:47.201Z,12.38
2019-03-18T15:03:14.061Z,11.92
2019-03-18T15:05:40.988Z,11.55
2019-03-18T15:08:07.857Z,11.11
2019-03-18T15:10:34.448Z,10.65
2019-03-18T15:13:01.321Z,10.50
2019-03-18T15:15:28.378Z,10.38
2019-03-18T15:17:54.922Z,10.50
2019-03-18T15:20:24.110Z,10.73
2019-03-18T15:22:50.911Z,10.95
2019-03-18T15:25:18.882Z,10.91
2019-03-18T15:27:45.647Z,10.95
2019-03-18T15:30:14.208Z,10.76
2019-03-18T15:32:42.123Z,10.67
2019-03-18T15:35:09.122Z,10.57
2019-03-18T15:37:35.951Z,10.62
2019-03-18T15:40:05.357Z,10.54
2019-03-18T15:42:32.773Z,10.69
2019-03-18T15:45:02.704Z,10.66
2019-03-18T15:47:28.680Z,10.87
2019-03-18T15:49:55.523Z,10.69
2019-03-18T15:52:22.183Z,10.54
2019-03-18T15:54:54.020Z,10.49
2019-03-18T15:57:29.638Z,10.58
2019-03-18T15:59:52.236Z,10.71
2019-03-18T16:02:22.221Z,10.67
2019-03-18T16:04:49.180Z,10.50
2019-03-18T16:07:16.827Z,10.15
2019-03-18T16:09:44.198Z,10.04
2019-03-18T16:12:14.300Z,9.79
2019-03-18T16:14:45.687Z,9.63
2019-03-18T16:17:19.065Z,9.35
2019-03-18T16:19:48.831Z,9.08
2019-03-18T16:22:23.516Z,8.78
2019-03-18T16:24:47.161Z,8.59
2019-03-18T16:27:13.962Z,8.42
2019-03-18T16:29:40.795Z,8.40
2019-03-18T16:32:11.679Z,8.25
2019-03-18T16:34:37.699Z,8.24
2019-03-18T16:37:04.637Z,8.24
2019-03-18T16:39:31.536Z,8.23
2019-03-18T16:41:58.393Z,8.25
2019-03-18T16:44:25.148Z,8.20
2019-03-18T16:46:52.333Z,8.10
2019-03-18T16:49:19.012Z,8.10
2019-03-18T16:51:45.923Z,8.00
2019-03-18T16:54:12.776Z,8.02
2019-03-18T16:56:39.473Z,7.90
2019-03-18T16:59:06.355Z,7.84
2019-03-18T17:01:33.234Z,7.75
2019-03-18T17:04:00.050Z,7.62
2019-03-18T17:06:26.721Z,7.53
2019-03-18T17:08:53.772Z,7.33
2019-03-18T17:11:22.217Z,7.22
2019-03-18T17:13:49.021Z,7.18
2019-03-18T17:16:15.809Z,7.06
2019-03-18T17:18:42.688Z,6.96
2019-03-18T17:21:10.341Z,6.84
2019-03-18T17:23:37.178Z,6.76
2019-03-18T17:26:04.069Z,6.62
2019-03-18T17:28:30.835Z,6.48
2019-03-18T17:30:57.699Z,6.35
2019-03-18T17:33:24.259Z,6.34
2019-03-18T17:35:50.955Z,6.33
2019-03-18T17:38:17.704Z,6.25
2019-03-18T17:40:44.485Z,6.15
2019-03-18T17:43:11.154Z,6.00
2019-03-18T17:45:38.089Z,5.89
2019-03-18T17:48:04.831Z,5.80
2019-03-18T17:50:31.507Z,5.72
2019-03-18T17:53:03.179Z,5.58
2019-03-18T17:55:27.043Z,5.53
2019-03-18T17:57:53.747Z,5.51
2019-03-18T18:00:22.638Z,5.49
2019-03-18T18:02:52.490Z,5.42
2019-03-18T18:05:18.342Z,5.38
2019-03-18T18:07:45.138Z,5.28
2019-03-18T18:10:12.020Z,5.20
2019-03-18T18:12:38.892Z,5.14
2019-03-18T18:15:05.796Z,5.14
2019-03-18T18:17:32.787Z,5.05
2019-03-18T18:19:59.698Z,5.03
2019-03-18T18:22:26.564Z,4.94
2019-03-18T18:24:53.329Z,4.88
2019-03-18T18:27:20.174Z,4.80
2019-03-18T18:29:46.931Z,4.72
2019-03-18T18:32:13.596Z,4.70
2019-03-18T18:34:40.556Z,4.62
2019-03-18T18:37:07.225Z,4.53
2019-03-18T18:39:33.955Z,4.48
2019-03-18T18:42:00.805Z,4.40
2019-03-18T18:44:27.486Z,4.36
2019-03-18T18:46:54.300Z,4.32
2019-03-18T18:49:21.169Z,4.24
2019-03-18T18:51:47.979Z,4.19
2019-03-18T18:54:14.733Z,4.14
2019-03-18T18:56:41.518Z,4.06
2019-03-18T18:59:08.246Z,4.02
2019-03-18T19:01:34.824Z,3.96
2019-03-18T19:04:01.658Z,3.91
2019-03-18T19:06:28.568Z,3.87
2019-03-18T19:08:55.491Z,3.89
2019-03-18T19:11:22.311Z,3.86
2019-03-18T19:13:48.891Z,3.90
2019-03-18T19:16:15.642Z,3.97
2019-03-18T19:18:42.432Z,4.03
2019-03-18T19:21:10.313Z,4.16
2019-03-18T19:23:38.137Z,4.21
2019-03-18T19:26:05.088Z,4.29
2019-03-18T19:28:31.953Z,4.34
2019-03-18T19:30:58.801Z,4.33
2019-03-18T19:33:25.602Z,4.37
2019-03-18T19:35:53.179Z,4.36
2019-03-18T19:38:19.974Z,4.36
2019-03-18T19:40:46.651Z,4.37
2019-03-18T19:43:14.351Z,4.38
2019-03-18T19:45:41.070Z,4.40
2019-03-18T19:48:08.277Z,4.47
2019-03-18T19:50:35.165Z,4.51
2019-03-18T19:53:02.533Z,4.53
2019-03-18T19:55:29.317Z,4.57
2019-03-18T19:57:56.326Z,4.56
2019-03-18T20:00:23.590Z,4.55
2019-03-18T20:02:50.874Z,4.57
2019-03-18T20:05:20.492Z,4.57
2019-03-18T20:07:47.330Z,4.55
2019-03-18T20:10:14.104Z,4.50
2019-03-18T20:12:41.067Z,4.43
2019-03-18T20:15:09.199Z,4.40
2019-03-18T20:17:36.237Z,4.40
2019-03-18T20:20:03.856Z,4.37
2019-03-18T20:22:30.493Z,4.31
2019-03-18T20:24:57.333Z,4.24
2019-03-18T20:27:24.133Z,4.17
2019-03-18T20:29:50.886Z,4.11
2019-03-18T20:32:19.621Z,4.03
2019-03-18T20:34:46.690Z,4.00
2019-03-18T20:37:13.660Z,3.97
2019-03-18T20:39:40.534Z,3.91
2019-03-18T20:42:07.554Z,3.81
2019-03-18T20:44:34.336Z,3.81
2019-03-18T20:47:01.227Z,3.75
2019-03-18T20:49:28.134Z,3.67
2019-03-18T20:51:55.028Z,3.64
2019-03-18T20:54:22.061Z,3.58
2019-03-18T20:56:48.977Z,3.59
2019-03-18T20:59:15.823Z,3.54
2019-03-18T21:01:42.504Z,3.48
2019-03-18T21:04:10.307Z,3.46
2019-03-18T21:06:37.306Z,3.37
2019-03-18T21:09:06.007Z,3.33
2019-03-18T21:11:32.914Z,3.26
2019-03-18T21:13:59.930Z,3.20
2019-03-18T21:16:28.839Z,3.22
2019-03-18T21:18:55.945Z,3.15
2019-03-18T21:21:22.657Z,3.14
2019-03-18T21:23:49.396Z,3.15
2019-03-18T21:26:16.335Z,3.17
2019-03-18T21:28:43.198Z,3.09
2019-03-18T21:31:09.944Z,3.00
2019-03-18T21:33:36.771Z,3.00
2019-03-18T21:36:03.503Z,2.97
2019-03-18T21:38:30.041Z,2.96
2019-03-18T21:40:57.030Z,2.93
2019-03-18T21:43:25.800Z,2.93
2019-03-18T21:45:52.579Z,2.92
2019-03-18T21:48:19.407Z,3.05
2019-03-18T21:50:46.500Z,3.16
2019-03-18T21:53:13.181Z,3.12
2019-03-18T21:55:40.227Z,3.07
2019-03-18T21:58:07.072Z,2.97
2019-03-18T22:00:34.983Z,2.88
2019-03-18T22:03:02.998Z,2.86
2019-03-18T22:05:30.778Z,2.78
2019-03-18T22:07:57.603Z,2.68
2019-03-18T22:10:24.440Z,2.57
2019-03-18T22:12:51.464Z,2.48
2019-03-18T22:15:18.490Z,2.42
2019-03-18T22:17:45.356Z,2.32
2019-03-18T22:20:13.166Z,2.27
2019-03-18T22:22:39.974Z,2.24
2019-03-18T22:25:07.425Z,2.26
2019-03-18T22:27:34.501Z,2.29
2019-03-18T22:30:01.354Z,2.35
2019-03-18T22:32:30.145Z,2.46
2019-03-18T22:34:57.968Z,2.56
2019-03-18T22:37:24.735Z,2.58
2019-03-18T22:39:51.653Z,2.62
2019-03-18T22:42:18.213Z,2.62
2019-03-18T22:44:45.056Z,2.62
2019-03-18T22:47:11.839Z,2.60
2019-03-18T22:49:38.734Z,2.59
2019-03-18T22:52:05.858Z,2.58
2019-03-18T22:54:32.768Z,2.57
2019-03-18T22:56:59.565Z,2.56
2019-03-18T22:59:26.205Z,2.55
2019-03-18T23:01:52.990Z,2.55
2019-03-18T23:04:19.930Z,2.59
2019-03-18T23:06:46.586Z,2.60
2019-03-18T23:09:13.256Z,2.63
2019-03-18T23:11:39.817Z,2.65
2019-03-18T23:14:06.349Z,2.68
2019-03-18T23:16:33.001Z,2.71
2019-03-18T23:18:59.660Z,2.75
2019-03-18T23:21:26.635Z,2.81
2019-03-18T23:23:53.168Z,2.87
2019-03-18T23:26:20.082Z,2.91
2019-03-18T23:28:46.719Z,2.95
2019-03-18T23:31:13.249Z,2.98
2019-03-18T23:33:40.026Z,3.00
2019-03-18T23:36:06.720Z,3.02
2019-03-18T23:38:33.321Z,3.07
2019-03-18T23:40:59.996Z,3.15
2019-03-18T23:43:26.714Z,3.19
2019-03-18T23:45:53.252Z,3.21
2019-03-18T23:48:20.142Z,3.21
2019-03-18T23:50:46.916Z,3.21
2019-03-18T23:53:13.483Z,3.19
2019-03-18T23:55:40.463Z,3.19
2019-03-18T23:58:07.066Z,3.20
